Time;durP1;ratioP1;P1;durP2;ratioP2;P2;SDS_P1;SDS_P2;PMS_P1;PMS_P2;Temp;Humidity;BMP_temperature;BMP_pressure;BME280_temperature;BME280_humidity;BME280_pressure;Samples;Min_cycle;Max_cycle;Signal;HPM_P1;HPM_P2
2021/12/31 00:01:33;;;;;;;;;;;12.00;99.90;;;;;;5139975;27;19968;-56
2021/12/31 00:03:59;;;;;;;;;;;12.00;99.90;;;;;;5145538;27;20010;-57
2021/12/31 00:06:25;;;;;;;;;;;12.00;99.90;;;;;;5126924;27;19988;-56
2021/12/31 00:08:50;;;;;;;;;;;12.10;99.90;;;;;;5136925;27;19974;-59
2021/12/31 00:11:16;;;;;;;;;;;12.10;99.90;;;;;;5126598;27;20321;-60
2021/12/31 00:13:41;;;;;;;;;;;12.10;99.90;;;;;;5133642;27;20752;-57
2021/12/31 00:16:07;;;;;;;;;;;12.00;99.90;;;;;;5143926;27;20413;-63
2021/12/31 00:18:32;;;;;;;;;;;12.00;99.90;;;;;;5131929;27;20360;-56
2021/12/31 00:20:58;;;;;;;;;;;12.00;99.90;;;;;;5134390;27;20384;-63
2021/12/31 00:23:26;;;;;;;;;;;12.00;99.90;;;;;;5134588;27;19928;-59
2021/12/31 00:25:51;;;;;;;;;;;12.00;99.90;;;;;;5140626;27;20514;-56
2021/12/31 00:28:17;;;;;;;;;;;12.00;99.90;;;;;;5126467;27;20014;-57
2021/12/31 00:30:43;;;;;;;;;;;11.90;99.90;;;;;;5130916;27;19968;-61
2021/12/31 00:33:09;;;;;;;;;;;12.00;99.90;;;;;;5143458;27;20395;-63
2021/12/31 00:35:36;;;;;;;;;;;12.10;99.90;;;;;;5136062;27;20029;-56
2021/12/31 00:38:02;;;;;;;;;;;12.00;99.90;;;;;;5146369;27;19934;-56
2021/12/31 00:40:27;;;;;;;;;;;12.00;99.90;;;;;;5131745;27;19927;-57
2021/12/31 00:42:53;;;;;;;;;;;11.90;99.90;;;;;;5141477;27;20423;-59
2021/12/31 00:45:20;;;;;;;;;;;11.90;99.90;;;;;;5140593;27;20395;-61
2021/12/31 00:47:46;;;;;;;;;;;11.90;99.90;;;;;;5133668;27;19927;-60
2021/12/31 00:50:13;;;;;;;;;;;11.90;99.90;;;;;;5145332;27;19930;-58
2021/12/31 00:52:39;;;;;;;;;;;11.90;99.90;;;;;;5134159;27;19927;-61
2021/12/31 00:55:05;;;;;;;;;;;11.90;99.90;;;;;;5141277;27;19927;-57
2021/12/31 00:57:30;;;;;;;;;;;11.90;99.90;;;;;;5141130;27;19939;-63
2021/12/31 00:59:56;;;;;;;;;;;12.10;99.90;;;;;;5133092;27;19927;-60
2021/12/31 01:02:24;;;;;;;;;;;11.90;99.90;;;;;;5144251;27;20034;-59
2021/12/31 01:04:50;;;;;;;;;;;11.90;99.90;;;;;;5127327;27;19939;-57
2021/12/31 01:07:15;;;;;;;;;;;11.90;99.90;;;;;;5136538;27;19934;-60
2021/12/31 01:09:41;;;;;;;;;;;11.90;99.90;;;;;;5131282;27;19928;-59
2021/12/31 01:12:10;;;;;;;;;;;11.90;99.90;;;;;;5129621;27;20018;-58
2021/12/31 01:14:39;;;;;;;;;;;11.80;99.90;;;;;;5143122;27;20410;-59
2021/12/31 01:17:09;;;;;;;;;;;11.80;99.90;;;;;;5138511;27;20328;-56
2021/12/31 01:19:48;;;;;;;;;;;11.80;99.90;;;;;;5136245;27;20369;-57
2021/12/31 01:22:14;;;;;;;;;;;11.80;99.90;;;;;;5146075;27;19995;-56
2021/12/31 01:24:39;;;;;;;;;;;12.00;99.90;;;;;;5134436;27;19931;-56
2021/12/31 01:27:05;;;;;;;;;;;11.80;99.90;;;;;;5138936;27;20060;-56
2021/12/31 01:29:30;;;;;;;;;;;11.80;99.90;;;;;;5141432;27;20308;-59
2021/12/31 01:31:56;;;;;;;;;;;11.80;99.90;;;;;;5133216;27;19932;-57
2021/12/31 01:34:24;;;;;;;;;;;11.80;99.90;;;;;;5146233;27;19927;-57
2021/12/31 01:36:50;;;;;;;;;;;11.80;99.90;;;;;;5135644;27;20276;-56
2021/12/31 01:39:15;;;;;;;;;;;11.80;99.90;;;;;;5138676;27;19923;-59
2021/12/31 01:41:41;;;;;;;;;;;11.80;99.90;;;;;;5121247;28;20388;-58
2021/12/31 01:44:07;;;;;;;;;;;11.80;99.90;;;;;;5139360;27;20410;-57
2021/12/31 01:46:35;;;;;;;;;;;11.80;99.90;;;;;;5133640;27;19927;-57
2021/12/31 01:49:03;;;;;;;;;;;11.80;99.90;;;;;;5138350;27;20384;-59
2021/12/31 01:51:29;;;;;;;;;;;11.80;99.90;;;;;;5139009;27;19934;-57
2021/12/31 01:53:55;;;;;;;;;;;11.80;99.90;;;;;;5132936;27;20289;-57
2021/12/31 01:56:22;;;;;;;;;;;11.80;99.90;;;;;;5145834;27;19927;-56
2021/12/31 01:58:49;;;;;;;;;;;11.80;99.90;;;;;;5133212;27;19927;-56
2021/12/31 02:01:15;;;;;;;;;;;11.80;99.90;;;;;;5137448;27;20333;-58
2021/12/31 02:03:41;;;;;;;;;;;11.80;99.90;;;;;;5130607;27;19928;-57
2021/12/31 02:06:06;;;;;;;;;;;11.90;99.90;;;;;;5145397;27;20137;-57
2021/12/31 02:08:32;;;;;;;;;;;11.80;99.90;;;;;;5128295;27;19977;-59
2021/12/31 02:10:57;;;;;;;;;;;11.80;99.90;;;;;;5139951;27;20395;-56
2021/12/31 02:13:23;;;;;;;;;;;11.70;99.90;;;;;;5141242;27;19927;-56
2021/12/31 02:15:49;;;;;;;;;;;11.80;99.90;;;;;;5147459;27;20017;-56
2021/12/31 02:18:14;;;;;;;;;;;11.80;99.90;;;;;;5136049;27;19928;-59
2021/12/31 02:20:44;;;;;;;;;;;11.70;99.90;;;;;;5147208;27;19992;-58
2021/12/31 02:23:37;;;;;;;;;;;11.70;99.90;;;;;;5141950;27;20459;-59
2021/12/31 02:26:03;;;;;;;;;;;11.80;99.90;;;;;;5149244;27;19927;-60
2021/12/31 02:28:28;;;;;;;;;;;11.70;99.90;;;;;;5136137;27;19980;-58
2021/12/31 02:31:00;;;;;;;;;;;11.80;99.90;;;;;;5145660;27;19935;-64
2021/12/31 02:33:25;;;;;;;;;;;11.80;99.90;;;;;;5141748;27;19931;-58
2021/12/31 02:35:51;;;;;;;;;;;11.80;99.90;;;;;;5145901;27;19934;-56
2021/12/31 02:38:17;;;;;;;;;;;11.80;99.90;;;;;;5135318;27;20014;-56
2021/12/31 02:40:42;;;;;;;;;;;11.90;99.90;;;;;;5152359;27;20006;-56
2021/12/31 02:43:08;;;;;;;;;;;11.90;99.90;;;;;;5141166;27;20312;-56
2021/12/31 02:45:37;;;;;;;;;;;11.90;99.90;;;;;;5144787;27;19970;-56
2021/12/31 02:48:04;;;;;;;;;;;11.90;99.90;;;;;;5132998;27;19928;-59
2021/12/31 02:50:34;;;;;;;;;;;12.00;99.90;;;;;;5148632;27;19927;-56
2021/12/31 02:53:20;;;;;;;;;;;11.90;99.90;;;;;;5140150;27;19973;-59
2021/12/31 02:55:48;;;;;;;;;;;11.90;99.90;;;;;;5134612;27;20449;-60
2021/12/31 02:58:13;;;;;;;;;;;11.90;99.90;;;;;;5130290;27;20347;-60
2021/12/31 03:00:41;;;;;;;;;;;11.90;99.90;;;;;;5150454;27;19927;-61
2021/12/31 03:03:07;;;;;;;;;;;11.90;99.90;;;;;;5147220;27;20332;-61
2021/12/31 03:05:34;;;;;;;;;;;12.00;99.90;;;;;;5132701;27;19927;-56
2021/12/31 03:08:00;;;;;;;;;;;12.00;99.90;;;;;;5144802;27;19928;-59
2021/12/31 03:10:26;;;;;;;;;;;12.00;99.90;;;;;;5129903;27;20392;-59
2021/12/31 03:12:53;;;;;;;;;;;12.00;99.90;;;;;;5129918;27;19928;-57
2021/12/31 03:15:18;;;;;;;;;;;12.00;99.90;;;;;;5146691;27;19986;-60
2021/12/31 03:17:44;;;;;;;;;;;12.00;99.90;;;;;;5149813;27;19966;-59
2021/12/31 03:20:13;;;;;;;;;;;12.00;99.90;;;;;;5151176;27;19931;-59
2021/12/31 03:22:39;;;;;;;;;;;12.00;99.90;;;;;;5150527;27;19934;-59
2021/12/31 03:25:05;;;;;;;;;;;12.10;99.90;;;;;;5139010;27;19927;-57
2021/12/31 03:27:31;;;;;;;;;;;12.10;99.90;;;;;;5142836;27;20018;-57
2021/12/31 03:29:57;;;;;;;;;;;12.10;99.90;;;;;;5133874;27;19935;-59
2021/12/31 03:32:23;;;;;;;;;;;12.10;99.90;;;;;;5124201;27;19928;-59
2021/12/31 03:34:48;;;;;;;;;;;12.20;99.90;;;;;;5136895;27;19927;-58
2021/12/31 03:37:14;;;;;;;;;;;12.20;99.90;;;;;;5140130;27;19956;-57
2021/12/31 03:39:40;;;;;;;;;;;12.20;99.90;;;;;;5144686;27;20412;-56
2021/12/31 03:42:05;;;;;;;;;;;12.20;99.90;;;;;;5150205;27;19966;-57
2021/12/31 03:44:31;;;;;;;;;;;12.20;99.90;;;;;;5134697;27;19931;-56
2021/12/31 03:46:56;;;;;;;;;;;12.20;99.90;;;;;;5142716;27;19931;-56
2021/12/31 03:49:22;;;;;;;;;;;12.20;99.90;;;;;;5129577;27;19972;-57
2021/12/31 03:51:48;;;;;;;;;;;12.20;99.90;;;;;;5145807;27;19934;-58
2021/12/31 03:54:13;;;;;;;;;;;12.30;99.90;;;;;;5132247;27;20399;-56
2021/12/31 03:56:39;;;;;;;;;;;12.30;99.90;;;;;;5146378;27;20289;-56
2021/12/31 03:59:04;;;;;;;;;;;12.30;99.90;;;;;;5139027;27;20008;-56
2021/12/31 04:01:30;;;;;;;;;;;12.30;99.90;;;;;;5137644;27;19931;-57
2021/12/31 04:03:56;;;;;;;;;;;12.30;99.90;;;;;;5132803;27;19963;-57
2021/12/31 04:06:21;;;;;;;;;;;12.20;99.90;;;;;;5147327;27;19935;-57
2021/12/31 04:08:48;;;;;;;;;;;12.20;99.90;;;;;;5130039;27;19927;-57
2021/12/31 04:11:14;;;;;;;;;;;12.20;99.90;;;;;;5140651;27;19927;-57
2021/12/31 04:13:39;;;;;;;;;;;12.20;99.90;;;;;;5136781;27;19973;-56
2021/12/31 04:16:05;;;;;;;;;;;12.20;99.90;;;;;;5147218;27;20265;-57
2021/12/31 04:18:31;;;;;;;;;;;12.30;99.90;;;;;;5133936;27;19934;-57
2021/12/31 04:20:57;;;;;;;;;;;12.20;99.90;;;;;;5143208;27;19931;-56
2021/12/31 04:24:09;;;;;;;;;;;12.20;99.90;;;;;;5141787;27;19995;-57
2021/12/31 04:26:13;;;;;;;;;;;12.20;99.90;;;;;;5133188;27;19927;-56
2021/12/31 04:28:40;;;;;;;;;;;12.20;99.90;;;;;;5134826;27;20415;-56
2021/12/31 04:31:05;;;;;;;;;;;12.20;99.90;;;;;;5142952;27;19927;-56
2021/12/31 04:33:31;;;;;;;;;;;12.20;99.90;;;;;;5129947;27;19938;-57
2021/12/31 04:35:57;;;;;;;;;;;12.20;99.90;;;;;;5145851;27;19931;-57
2021/12/31 04:38:23;;;;;;;;;;;12.20;99.90;;;;;;5133266;27;19934;-57
2021/12/31 04:40:48;;;;;;;;;;;12.20;99.90;;;;;;5149780;27;20333;-57
2021/12/31 04:43:14;;;;;;;;;;;12.30;99.90;;;;;;5139941;27;20369;-56
2021/12/31 04:45:40;;;;;;;;;;;12.20;99.90;;;;;;5143253;27;19950;-57
2021/12/31 04:48:05;;;;;;;;;;;12.30;99.90;;;;;;5132294;27;19928;-57
2021/12/31 04:50:31;;;;;;;;;;;12.30;99.90;;;;;;5146019;27;19931;-56
2021/12/31 04:52:56;;;;;;;;;;;12.30;99.90;;;;;;5137619;27;20372;-56
2021/12/31 04:55:22;;;;;;;;;;;12.30;99.90;;;;;;5138291;27;19928;-56
2021/12/31 04:57:49;;;;;;;;;;;12.30;99.90;;;;;;5144164;27;19927;-57
2021/12/31 05:00:15;;;;;;;;;;;12.40;99.90;;;;;;5132404;27;19967;-57
2021/12/31 05:02:41;;;;;;;;;;;12.40;99.90;;;;;;5146796;27;20265;-57
2021/12/31 05:05:07;;;;;;;;;;;12.40;99.90;;;;;;5143895;27;19933;-56
2021/12/31 05:07:33;;;;;;;;;;;12.40;99.90;;;;;;5137274;27;19972;-58
2021/12/31 05:09:58;;;;;;;;;;;12.50;99.90;;;;;;5129153;27;19934;-57
2021/12/31 05:12:30;;;;;;;;;;;12.50;99.90;;;;;;5146266;27;20338;-58
2021/12/31 05:14:56;;;;;;;;;;;12.50;99.90;;;;;;5136972;27;20145;-60
2021/12/31 05:17:21;;;;;;;;;;;12.40;99.90;;;;;;5138317;27;19928;-60
2021/12/31 05:19:47;;;;;;;;;;;12.40;99.90;;;;;;5144083;27;20307;-61
2021/12/31 05:22:13;;;;;;;;;;;12.40;99.90;;;;;;5132869;27;19931;-60
2021/12/31 05:24:39;;;;;;;;;;;12.30;99.90;;;;;;5146260;27;19927;-61
2021/12/31 05:27:05;;;;;;;;;;;12.30;99.90;;;;;;5140127;27;20382;-56
2021/12/31 05:29:31;;;;;;;;;;;12.30;99.90;;;;;;5139649;27;19931;-63
2021/12/31 05:31:56;;;;;;;;;;;12.20;99.90;;;;;;5131881;27;19927;-59
2021/12/31 05:34:22;;;;;;;;;;;12.30;99.90;;;;;;5145510;27;19984;-63
2021/12/31 05:36:48;;;;;;;;;;;12.50;99.90;;;;;;5133828;27;20041;-58
2021/12/31 05:39:14;;;;;;;;;;;12.40;99.90;;;;;;5139007;27;19933;-56
2021/12/31 05:41:40;;;;;;;;;;;12.40;99.90;;;;;;5129028;27;20482;-56
2021/12/31 05:44:06;;;;;;;;;;;12.40;99.90;;;;;;5127106;27;19927;-56
2021/12/31 05:46:32;;;;;;;;;;;12.40;99.90;;;;;;5145156;27;20384;-62
2021/12/31 05:48:58;;;;;;;;;;;12.50;99.90;;;;;;5136143;27;19934;-56
2021/12/31 05:51:26;;;;;;;;;;;12.40;99.90;;;;;;5137585;27;20018;-60
2021/12/31 05:53:52;;;;;;;;;;;12.50;99.90;;;;;;5142762;27;20325;-60
2021/12/31 05:56:17;;;;;;;;;;;12.50;99.90;;;;;;5131870;27;19931;-56
2021/12/31 05:58:43;;;;;;;;;;;12.40;99.90;;;;;;5142798;27;20445;-66
2021/12/31 06:01:09;;;;;;;;;;;12.40;99.90;;;;;;5137552;27;20475;-56
2021/12/31 06:03:34;;;;;;;;;;;12.50;99.90;;;;;;5145761;27;20357;-60
2021/12/31 06:06:00;;;;;;;;;;;12.50;99.90;;;;;;5130797;27;19931;-56
2021/12/31 06:08:25;;;;;;;;;;;12.50;99.90;;;;;;5138657;27;20285;-56
2021/12/31 06:10:51;;;;;;;;;;;12.50;99.90;;;;;;5142154;27;20010;-56
2021/12/31 06:13:17;;;;;;;;;;;12.50;99.90;;;;;;5138836;27;19931;-62
2021/12/31 06:15:42;;;;;;;;;;;12.40;99.90;;;;;;5134984;27;19935;-60
2021/12/31 06:18:08;;;;;;;;;;;12.50;99.90;;;;;;5144866;27;19927;-57
2021/12/31 06:20:35;;;;;;;;;;;12.50;99.90;;;;;;5132691;27;19927;-61
2021/12/31 06:23:00;;;;;;;;;;;12.40;99.90;;;;;;5139482;27;19953;-60
2021/12/31 06:25:26;;;;;;;;;;;12.40;99.90;;;;;;5140092;27;20300;-59
2021/12/31 06:27:52;;;;;;;;;;;12.50;99.90;;;;;;5133411;27;19928;-60
2021/12/31 06:30:17;;;;;;;;;;;12.50;99.90;;;;;;5143948;27;19927;-56
2021/12/31 06:32:43;;;;;;;;;;;12.50;99.90;;;;;;5134236;27;19927;-60
2021/12/31 06:35:09;;;;;;;;;;;12.50;99.90;;;;;;5139466;27;19927;-56
2021/12/31 06:37:34;;;;;;;;;;;12.50;99.90;;;;;;5140785;27;19927;-59
2021/12/31 06:40:04;;;;;;;;;;;12.50;99.90;;;;;;5130793;27;19979;-57
2021/12/31 06:42:30;;;;;;;;;;;12.50;99.90;;;;;;5132365;27;20327;-63
2021/12/31 06:44:55;;;;;;;;;;;12.50;99.90;;;;;;5135869;27;19927;-63
2021/12/31 06:47:21;;;;;;;;;;;12.50;99.90;;;;;;5137358;27;19927;-66
2021/12/31 06:49:46;;;;;;;;;;;12.50;99.90;;;;;;5141163;27;19926;-57
2021/12/31 06:52:12;;;;;;;;;;;12.40;99.90;;;;;;5129994;27;19928;-63
2021/12/31 06:54:37;;;;;;;;;;;12.50;99.90;;;;;;5143951;27;19934;-58
2021/12/31 06:57:03;;;;;;;;;;;12.40;99.90;;;;;;5136800;27;19933;-56
2021/12/31 06:59:29;;;;;;;;;;;12.40;99.90;;;;;;5139629;27;20022;-58
2021/12/31 07:01:57;;;;;;;;;;;12.40;99.90;;;;;;5146158;27;20017;-56
2021/12/31 07:04:23;;;;;;;;;;;12.40;99.90;;;;;;5146308;27;19939;-56
2021/12/31 07:06:49;;;;;;;;;;;12.40;99.90;;;;;;5131280;27;20297;-57
2021/12/31 07:09:14;;;;;;;;;;;12.40;99.90;;;;;;5144877;27;19927;-60
2021/12/31 07:11:40;;;;;;;;;;;12.40;99.90;;;;;;5137636;27;19956;-56
2021/12/31 07:14:06;;;;;;;;;;;12.40;99.90;;;;;;5142423;27;19930;-59
2021/12/31 07:16:31;;;;;;;;;;;12.40;99.90;;;;;;5134344;27;19927;-56
2021/12/31 07:18:57;;;;;;;;;;;12.70;99.90;;;;;;5143224;27;20326;-56
2021/12/31 07:21:23;;;;;;;;;;;12.30;99.90;;;;;;5131294;27;19927;-59
2021/12/31 07:23:48;;;;;;;;;;;12.40;99.90;;;;;;5142384;27;20404;-57
2021/12/31 07:26:14;;;;;;;;;;;12.30;99.90;;;;;;5146921;27;19931;-57
2021/12/31 07:28:39;;;;;;;;;;;12.30;99.90;;;;;;5136070;27;20395;-59
2021/12/31 07:31:06;;;;;;;;;;;12.40;99.90;;;;;;5140223;27;19934;-59
2021/12/31 07:33:32;;;;;;;;;;;12.30;99.90;;;;;;5143004;27;19970;-58
2021/12/31 07:36:00;;;;;;;;;;;12.40;99.90;;;;;;5132757;27;20830;-57
2021/12/31 07:38:34;;;;;;;;;;;12.40;99.90;;;;;;5144892;27;19931;-57
2021/12/31 07:41:00;;;;;;;;;;;12.30;99.90;;;;;;5130164;27;20004;-58
2021/12/31 07:43:25;;;;;;;;;;;12.30;99.90;;;;;;5140693;27;20372;-57
2021/12/31 07:45:52;;;;;;;;;;;12.30;99.90;;;;;;5135335;27;20420;-57
2021/12/31 07:48:18;;;;;;;;;;;12.20;99.90;;;;;;5143397;27;19931;-56
2021/12/31 07:50:43;;;;;;;;;;;12.20;99.90;;;;;;5136585;27;19980;-57
2021/12/31 07:53:09;;;;;;;;;;;12.20;99.90;;;;;;5129793;27;19927;-57
2021/12/31 07:55:35;;;;;;;;;;;12.20;99.90;;;;;;5136970;27;20049;-58
2021/12/31 07:58:01;;;;;;;;;;;12.20;99.90;;;;;;5139288;27;19931;-58
2021/12/31 08:00:27;;;;;;;;;;;12.10;99.90;;;;;;5141425;27;19931;-59
2021/12/31 08:02:53;;;;;;;;;;;12.10;99.90;;;;;;5136413;27;19971;-59
2021/12/31 08:05:19;;;;;;;;;;;12.10;99.90;;;;;;5139784;27;19974;-58
2021/12/31 08:07:44;;;;;;;;;;;12.20;99.90;;;;;;5134735;27;20247;-59
2021/12/31 08:10:10;;;;;;;;;;;12.10;99.90;;;;;;5129757;27;19935;-58
2021/12/31 08:12:36;;;;;;;;;;;12.20;99.90;;;;;;5130287;27;19972;-58
2021/12/31 08:15:02;;;;;;;;;;;12.30;99.90;;;;;;5137850;27;19949;-57
2021/12/31 08:17:28;;;;;;;;;;;12.30;99.90;;;;;;5138929;27;19927;-59
2021/12/31 08:19:54;;;;;;;;;;;12.30;99.90;;;;;;5137405;27;20289;-60
2021/12/31 08:22:21;;;;;;;;;;;12.30;99.90;;;;;;5139021;27;20003;-58
2021/12/31 08:24:47;;;;;;;;;;;12.30;99.90;;;;;;5136123;27;19943;-57
2021/12/31 08:27:12;;;;;;;;;;;12.30;99.90;;;;;;5136892;27;19927;-56
2021/12/31 08:29:38;;;;;;;;;;;12.40;99.90;;;;;;5129069;27;19953;-57
2021/12/31 08:32:04;;;;;;;;;;;12.40;99.90;;;;;;5131709;27;19953;-57
2021/12/31 08:34:29;;;;;;;;;;;12.40;99.90;;;;;;5127410;27;20018;-56
2021/12/31 08:36:55;;;;;;;;;;;12.40;99.90;;;;;;5128770;27;20055;-57
2021/12/31 08:39:21;;;;;;;;;;;12.30;99.90;;;;;;5126919;27;19927;-57
2021/12/31 08:41:47;;;;;;;;;;;12.40;99.90;;;;;;5127707;27;19928;-57
2021/12/31 08:44:12;;;;;;;;;;;12.50;99.90;;;;;;5129700;27;20288;-57
2021/12/31 08:46:40;;;;;;;;;;;12.50;99.90;;;;;;5129111;27;19984;-59
2021/12/31 08:49:06;;;;;;;;;;;12.50;99.90;;;;;;5126066;27;19984;-57
2021/12/31 08:51:31;;;;;;;;;;;12.50;99.90;;;;;;5127201;27;19927;-57
2021/12/31 08:53:57;;;;;;;;;;;12.50;99.90;;;;;;5130424;27;19982;-59
2021/12/31 08:56:23;;;;;;;;;;;12.60;99.90;;;;;;5124993;27;19927;-60
2021/12/31 08:58:48;;;;;;;;;;;12.60;99.90;;;;;;5108372;27;20023;-57
2021/12/31 09:01:14;;;;;;;;;;;12.70;99.90;;;;;;5131832;27;19931;-57
2021/12/31 09:03:40;;;;;;;;;;;12.70;99.90;;;;;;5139624;27;19928;-59
2021/12/31 09:06:06;;;;;;;;;;;12.60;99.90;;;;;;5127525;27;19927;-58
2021/12/31 09:08:33;;;;;;;;;;;12.60;99.90;;;;;;5135172;27;19954;-58
2021/12/31 09:10:58;;;;;;;;;;;12.60;99.90;;;;;;5125495;27;19972;-58
2021/12/31 09:13:24;;;;;;;;;;;12.60;99.90;;;;;;5131703;27;20007;-59
2021/12/31 09:15:49;;;;;;;;;;;12.60;99.90;;;;;;5130190;27;20410;-63
2021/12/31 09:18:15;;;;;;;;;;;12.60;99.90;;;;;;5139241;27;19934;-57
2021/12/31 09:20:41;;;;;;;;;;;12.60;99.90;;;;;;5136591;27;20073;-63
2021/12/31 09:23:06;;;;;;;;;;;12.60;99.90;;;;;;5133435;27;20417;-61
2021/12/31 09:25:32;;;;;;;;;;;12.60;99.90;;;;;;5140185;27;19934;-62
2021/12/31 09:27:58;;;;;;;;;;;12.60;99.90;;;;;;5142003;27;19927;-62
2021/12/31 09:30:23;;;;;;;;;;;12.50;99.90;;;;;;5135871;27;19928;-61
2021/12/31 09:32:49;;;;;;;;;;;12.50;99.90;;;;;;5137746;27;19927;-58
2021/12/31 09:35:15;;;;;;;;;;;12.50;99.90;;;;;;5135894;27;20417;-56
2021/12/31 09:37:40;;;;;;;;;;;12.50;99.90;;;;;;5132122;27;19927;-57
2021/12/31 09:40:07;;;;;;;;;;;12.60;99.90;;;;;;5140777;27;19941;-62
2021/12/31 09:42:32;;;;;;;;;;;12.60;99.90;;;;;;5141185;27;19949;-57
2021/12/31 09:44:58;;;;;;;;;;;12.60;99.90;;;;;;5131628;27;20376;-57
2021/12/31 09:47:23;;;;;;;;;;;12.70;99.90;;;;;;5133838;27;19923;-57
2021/12/31 09:49:49;;;;;;;;;;;12.70;99.90;;;;;;5134635;27;19927;-58
2021/12/31 09:52:19;;;;;;;;;;;12.70;99.90;;;;;;5127418;27;19927;-59
2021/12/31 09:54:46;;;;;;;;;;;12.80;99.90;;;;;;5130478;27;20000;-60
2021/12/31 09:57:16;;;;;;;;;;;12.70;99.90;;;;;;5131038;27;19934;-59
2021/12/31 09:59:41;;;;;;;;;;;12.70;99.90;;;;;;5138257;27;19935;-57
2021/12/31 10:02:09;;;;;;;;;;;12.60;99.90;;;;;;5128506;27;20177;-56
2021/12/31 10:04:53;;;;;;;;;;;12.60;99.90;;;;;;5129561;27;20005;-56
2021/12/31 10:07:21;;;;;;;;;;;12.60;99.90;;;;;;5137891;27;20385;-57
2021/12/31 10:10:02;;;;;;;;;;;12.60;99.90;;;;;;5141414;27;19970;-57
2021/12/31 10:12:42;;;;;;;;;;;12.50;99.90;;;;;;5122946;27;20050;-57
2021/12/31 10:15:07;;;;;;;;;;;12.50;99.90;;;;;;5123488;27;19931;-57
2021/12/31 10:17:34;;;;;;;;;;;13.90;99.90;;;;;;5124884;28;20341;-57
2021/12/31 10:20:00;;;;;;;;;;;12.50;99.90;;;;;;5137433;27;19934;-57
2021/12/31 10:22:26;;;;;;;;;;;12.50;99.90;;;;;;5142988;27;19982;-57
2021/12/31 10:24:52;;;;;;;;;;;12.50;99.90;;;;;;5126571;27;20393;-57
2021/12/31 10:27:19;;;;;;;;;;;12.50;99.90;;;;;;5135382;27;19934;-59
2021/12/31 10:29:55;;;;;;;;;;;12.50;99.90;;;;;;5130775;27;19934;-58
2021/12/31 10:32:23;;;;;;;;;;;12.50;99.90;;;;;;5140161;27;19931;-56
2021/12/31 10:34:49;;;;;;;;;;;12.40;99.90;;;;;;5130999;27;20028;-66
2021/12/31 10:37:15;;;;;;;;;;;12.40;99.90;;;;;;5138183;27;20052;-65
2021/12/31 10:39:41;;;;;;;;;;;12.30;99.90;;;;;;5138445;27;19945;-67
2021/12/31 10:42:08;;;;;;;;;;;12.30;99.90;;;;;;5130977;27;20030;-63
2021/12/31 10:44:42;;;;;;;;;;;12.20;99.90;;;;;;5145012;27;20457;-63
2021/12/31 10:47:12;;;;;;;;;;;12.20;99.90;;;;;;5136425;27;19927;-56
2021/12/31 10:49:57;;;;;;;;;;;12.20;99.90;;;;;;5134592;27;19934;-67
2021/12/31 10:52:24;;;;;;;;;;;12.10;99.90;;;;;;5142349;27;19974;-59
2021/12/31 10:55:00;;;;;;;;;;;12.20;99.90;;;;;;5133358;27;19927;-56
2021/12/31 10:57:36;;;;;;;;;;;12.20;99.90;;;;;;5136054;27;19993;-57
2021/12/31 11:00:01;;;;;;;;;;;12.20;99.90;;;;;;5137524;27;19931;-59
2021/12/31 11:02:27;;;;;;;;;;;12.10;99.90;;;;;;5142804;27;20585;-56
2021/12/31 11:04:53;;;;;;;;;;;12.10;99.90;;;;;;5127019;27;19935;-56
2021/12/31 11:07:19;;;;;;;;;;;12.10;99.90;;;;;;5138154;27;19927;-60
2021/12/31 11:09:45;;;;;;;;;;;12.10;99.90;;;;;;5131537;27;19928;-61
2021/12/31 11:12:11;;;;;;;;;;;12.10;99.90;;;;;;5143992;27;19952;-59
2021/12/31 11:14:37;;;;;;;;;;;12.00;99.90;;;;;;5136375;27;19929;-60
2021/12/31 11:17:03;;;;;;;;;;;12.10;99.90;;;;;;5136479;27;20471;-57
2021/12/31 11:19:28;;;;;;;;;;;12.10;99.90;;;;;;5133333;27;19934;-57
2021/12/31 11:21:54;;;;;;;;;;;12.10;99.90;;;;;;5125250;27;19927;-56
2021/12/31 11:24:36;;;;;;;;;;;12.10;99.90;;;;;;5129524;27;19972;-56
2021/12/31 11:27:20;;;;;;;;;;;12.10;99.90;;;;;;5124756;27;19931;-57
2021/12/31 11:29:46;;;;;;;;;;;12.10;99.90;;;;;;5135761;27;19965;-56
2021/12/31 11:32:11;;;;;;;;;;;12.30;99.90;;;;;;5128219;27;20089;-56
2021/12/31 11:34:37;;;;;;;;;;;12.10;99.90;;;;;;5124403;27;19927;-56
2021/12/31 11:37:03;;;;;;;;;;;12.10;99.90;;;;;;5127368;27;19950;-57
2021/12/31 11:39:34;;;;;;;;;;;12.10;99.90;;;;;;5125214;27;19927;-57
2021/12/31 11:42:00;;;;;;;;;;;12.10;99.90;;;;;;5127862;27;19928;-57
2021/12/31 11:44:27;;;;;;;;;;;12.10;99.90;;;;;;5128191;27;20433;-56
2021/12/31 11:47:11;;;;;;;;;;;12.00;99.90;;;;;;5125273;27;19931;-57
2021/12/31 11:49:37;;;;;;;;;;;12.00;99.90;;;;;;5128757;27;19997;-57
2021/12/31 11:52:20;;;;;;;;;;;12.00;99.90;;;;;;5125079;27;19965;-59
2021/12/31 11:54:46;;;;;;;;;;;12.00;99.90;;;;;;5127343;27;19935;-58
2021/12/31 11:57:26;;;;;;;;;;;12.00;99.90;;;;;;5125593;27;19957;-62
2021/12/31 11:59:53;;;;;;;;;;;11.90;99.90;;;;;;5129472;27;19934;-61
2021/12/31 12:02:20;;;;;;;;;;;11.90;99.90;;;;;;5123800;27;19932;-57
2021/12/31 12:04:46;;;;;;;;;;;11.80;99.90;;;;;;5128329;27;19934;-64
2021/12/31 12:07:11;;;;;;;;;;;11.80;99.90;;;;;;5137801;27;20189;-57
2021/12/31 12:09:37;;;;;;;;;;;11.80;99.90;;;;;;5124363;27;19996;-59
2021/12/31 12:12:03;;;;;;;;;;;11.80;99.90;;;;;;5126802;27;19931;-56
2021/12/31 12:14:29;;;;;;;;;;;11.80;99.90;;;;;;5121818;27;19928;-57
2021/12/31 12:16:57;;;;;;;;;;;11.90;99.90;;;;;;5124197;27;19928;-56
2021/12/31 12:19:22;;;;;;;;;;;11.90;99.90;;;;;;5127599;27;20346;-60
2021/12/31 12:21:52;;;;;;;;;;;11.80;99.90;;;;;;5124895;27;20032;-56
2021/12/31 12:24:23;;;;;;;;;;;11.90;99.90;;;;;;5127297;27;20444;-61
2021/12/31 12:26:48;;;;;;;;;;;11.90;99.90;;;;;;5130864;27;19980;-62
2021/12/31 12:29:25;;;;;;;;;;;11.90;99.90;;;;;;5126745;27;19927;-67
2021/12/31 12:32:32;;;;;;;;;;;11.90;99.90;;;;;;5125207;27;19934;-58
2021/12/31 12:34:57;;;;;;;;;;;11.80;99.90;;;;;;5120022;27;19933;-65
2021/12/31 12:37:27;;;;;;;;;;;11.70;99.90;;;;;;5122587;27;19931;-59
2021/12/31 12:40:00;;;;;;;;;;;11.80;99.90;;;;;;5133054;27;19924;-60
2021/12/31 12:42:26;;;;;;;;;;;11.80;99.90;;;;;;5136248;27;19927;-60
2021/12/31 12:45:02;;;;;;;;;;;11.80;99.90;;;;;;5130474;27;19970;-59
2021/12/31 12:47:27;;;;;;;;;;;11.80;99.90;;;;;;5129755;27;19934;-59
2021/12/31 12:49:54;;;;;;;;;;;11.90;99.90;;;;;;5132442;27;19927;-59
2021/12/31 12:52:20;;;;;;;;;;;11.90;99.90;;;;;;5127168;27;19927;-59
2021/12/31 12:54:45;;;;;;;;;;;11.90;99.90;;;;;;5131958;27;19950;-57
2021/12/31 12:57:11;;;;;;;;;;;11.80;99.90;;;;;;5124882;27;19935;-59
2021/12/31 12:59:37;;;;;;;;;;;11.80;99.90;;;;;;5137058;27;19927;-56
2021/12/31 13:02:03;;;;;;;;;;;11.90;99.90;;;;;;5126025;27;19980;-57
2021/12/31 13:04:29;;;;;;;;;;;11.70;99.90;;;;;;5132429;27;20319;-57
2021/12/31 13:07:00;;;;;;;;;;;11.70;99.90;;;;;;5130263;27;20277;-57
2021/12/31 13:09:29;;;;;;;;;;;11.70;99.90;;;;;;5131736;27;19934;-57
2021/12/31 13:12:00;;;;;;;;;;;11.70;99.90;;;;;;5130865;27;19934;-57
2021/12/31 13:14:28;;;;;;;;;;;11.70;99.90;;;;;;5130537;27;19942;-56
2021/12/31 13:16:57;;;;;;;;;;;11.60;99.90;;;;;;5127096;27;19937;-57
2021/12/31 13:19:38;;;;;;;;;;;11.60;99.90;;;;;;5128670;27;20127;-57
2021/12/31 13:22:05;;;;;;;;;;;10.60;99.90;;;;;;5134585;27;20014;-59
2021/12/31 13:24:33;;;;;;;;;;;11.60;99.90;;;;;;5132754;27;20494;-61
2021/12/31 13:27:05;;;;;;;;;;;11.50;99.90;;;;;;5133719;27;19934;-58
2021/12/31 13:29:34;;;;;;;;;;;11.50;99.90;;;;;;5128293;27;19934;-56
2021/12/31 13:32:04;;;;;;;;;;;11.50;99.90;;;;;;5129273;27;19928;-62
2021/12/31 13:34:37;;;;;;;;;;;11.50;99.90;;;;;;5125306;27;20384;-56
2021/12/31 13:37:04;;;;;;;;;;;11.50;99.90;;;;;;5129411;27;19928;-58
2021/12/31 13:39:39;;;;;;;;;;;11.50;99.90;;;;;;5127901;27;20257;-63
2021/12/31 13:42:09;;;;;;;;;;;11.50;99.90;;;;;;5129277;27;19927;-65
2021/12/31 13:44:39;;;;;;;;;;;11.50;99.90;;;;;;5127601;27;19931;-61
2021/12/31 13:47:07;;;;;;;;;;;11.40;99.90;;;;;;5129956;27;19934;-58
2021/12/31 13:49:37;;;;;;;;;;;11.40;99.90;;;;;;5127309;27;19927;-57
2021/12/31 13:52:23;;;;;;;;;;;11.40;99.90;;;;;;5125996;27;20491;-60
2021/12/31 13:54:49;;;;;;;;;;;11.40;99.90;;;;;;5129516;27;19927;-63
2021/12/31 13:57:31;;;;;;;;;;;11.40;99.90;;;;;;5130080;27;19974;-58
2021/12/31 14:00:08;;;;;;;;;;;11.40;99.90;;;;;;5124086;27;19934;-60
2021/12/31 14:02:34;;;;;;;;;;;11.30;99.90;;;;;;5127145;27;19934;-62
2021/12/31 14:05:01;;;;;;;;;;;11.30;99.90;;;;;;5122141;27;19927;-56
2021/12/31 14:07:38;;;;;;;;;;;11.30;99.90;;;;;;5129819;27;20011;-58
2021/12/31 14:10:05;;;;;;;;;;;11.30;99.90;;;;;;5128246;27;19980;-60
2021/12/31 14:12:41;;;;;;;;;;;11.30;99.90;;;;;;5127609;27;19939;-60
2021/12/31 14:15:07;;;;;;;;;;;10.20;99.90;;;;;;5127169;27;19932;-59
2021/12/31 14:17:32;;;;;;;;;;;11.30;99.90;;;;;;5126120;27;20038;-59